Time;durP1;ratioP1;P1;durP2;ratioP2;P2;SDS_P1;SDS_P2;PMS_P1;PMS_P2;Temp;Humidity;BMP_temperature;BMP_pressure;BME280_temperature;BME280_humidity;BME280_pressure;Samples;Min_cycle;Max_cycle;Signal;HPM_P1;HPM_P2
2022/02/22 00:01:06;;;;;;;10.27;1.52;;;;;;;9.42;57.56;99929.94;4992828;28;98407;-78
2022/02/22 00:03:36;;;;;;;15.45;2.03;;;;;;;9.48;57.52;99933.16;4992384;28;97883;-77
2022/02/22 00:06:02;;;;;;;9.30;1.63;;;;;;;8.64;59.12;99945.53;4985398;28;99140;-76
2022/02/22 00:08:30;;;;;;;11.93;1.67;;;;;;;9.02;59.25;99943.97;4987277;28;98862;-77
2022/02/22 00:10:57;;;;;;;8.70;1.80;;;;;;;8.98;59.20;99945.03;4988606;28;96955;-77
2022/02/22 00:13:25;;;;;;;18.63;1.67;;;;;;;8.97;58.98;99949.44;4989761;28;98372;-78
2022/02/22 00:15:52;;;;;;;17.05;2.25;;;;;;;8.75;59.23;99954.72;4986359;28;98972;-76
2022/02/22 00:18:18;;;;;;;17.10;1.88;;;;;;;8.91;58.94;99957.59;4988494;28;98822;-76
2022/02/22 00:20:45;;;;;;;10.68;1.40;;;;;;;9.01;58.98;99961.56;4988877;28;96859;-76
2022/02/22 00:23:33;;;;;;;10.65;2.13;;;;;;;8.86;59.43;99956.06;4984830;28;98216;-75
2022/02/22 00:26:01;;;;;;;11.93;1.50;;;;;;;8.94;59.28;99973.25;4985515;28;98548;-77
2022/02/22 00:28:27;;;;;;;15.20;1.90;;;;;;;8.72;60.13;99969.81;4988478;28;98901;-75
2022/02/22 00:30:54;;;;;;;16.10;1.90;;;;;;;8.98;58.92;99982.78;4986847;28;98513;-77
2022/02/22 00:33:20;;;;;;;7.63;1.40;;;;;;;8.87;59.51;99971.78;4989593;28;96938;-75
2022/02/22 00:35:46;;;;;;;11.05;1.42;;;;;;;8.74;60.26;99979.34;4984715;28;99044;-74
2022/02/22 00:38:13;;;;;;;10.02;1.50;;;;;;;8.78;60.12;99980.09;4987492;28;99710;-74
2022/02/22 00:40:40;;;;;;;19.65;1.88;;;;;;;8.98;59.54;99976.66;4988831;28;96885;-75
2022/02/22 00:43:08;;;;;;;9.52;1.67;;;;;;;8.47;61.14;99990.13;4994024;28;99021;-75
2022/02/22 00:45:35;;;;;;;10.60;1.88;;;;;;;8.82;59.65;99992.22;4990940;28;99324;-75
2022/02/22 00:48:01;;;;;;;9.80;1.92;;;;;;;8.90;59.81;100000.66;4990692;28;98999;-76
2022/02/22 00:50:28;;;;;;;12.05;1.90;;;;;;;8.71;60.69;100008.44;4994392;28;97199;-76
2022/02/22 00:52:55;;;;;;;18.38;2.25;;;;;;;8.90;60.49;100016.47;4996879;28;96782;-74
2022/02/22 00:55:21;;;;;;;10.13;1.67;;;;;;;8.97;60.10;100017.94;4995978;28;99590;-76
2022/02/22 00:57:47;;;;;;;8.68;1.33;;;;;;;9.43;58.82;100022.19;4999274;28;98426;-75
2022/02/22 01:00:16;;;;;;;13.52;1.60;;;;;;;9.10;59.76;100034.13;4988898;28;98785;-76
2022/02/22 01:02:43;;;;;;;7.55;1.10;;;;;;;8.90;60.92;100036.69;4994151;28;96834;-76
2022/02/22 01:05:10;;;;;;;10.32;1.60;;;;;;;8.80;60.52;100033.56;4996059;28;99408;-76
2022/02/22 01:07:36;;;;;;;7.78;1.63;;;;;;;8.89;60.88;100027.94;4995681;28;99200;-76
2022/02/22 01:10:04;;;;;;;12.82;1.80;;;;;;;8.55;61.69;100040.69;4988736;28;97646;-76
2022/02/22 01:12:31;;;;;;;16.90;1.60;;;;;;;8.44;62.54;100048.16;4989778;28;96816;-76
2022/02/22 01:14:57;;;;;;;15.35;1.73;;;;;;;8.80;61.11;100041.44;4984543;28;99021;-76
2022/02/22 01:17:25;;;;;;;9.43;1.85;;;;;;;9.09;60.58;100049.06;4988800;28;98112;-77
2022/02/22 01:19:52;;;;;;;10.38;1.75;;;;;;;9.20;60.16;100044.22;4989829;28;97857;-76
2022/02/22 01:22:18;;;;;;;7.45;1.55;;;;;;;9.19;59.88;100057.44;4989667;28;97245;-75
2022/02/22 01:24:44;;;;;;;10.57;2.38;;;;;;;9.40;59.52;100059.22;4984865;28;99683;-76
2022/02/22 01:27:11;;;;;;;10.50;1.70;;;;;;;9.08;60.46;100059.66;4990972;28;99265;-76
2022/02/22 01:29:37;;;;;;;9.95;1.55;;;;;;;9.39;59.82;100065.41;4992089;28;97704;-77
2022/02/22 01:32:04;;;;;;;9.65;2.15;;;;;;;9.29;59.58;100072.00;4988662;28;96878;-75
2022/02/22 01:34:32;;;;;;;11.02;2.35;;;;;;;9.30;59.02;100083.41;4985373;28;98502;-75
2022/02/22 01:36:58;;;;;;;18.83;1.70;;;;;;;9.37;58.87;100079.59;4985418;28;99280;-76
2022/02/22 01:39:25;;;;;;;17.88;1.77;;;;;;;9.07;60.21;100087.78;4985356;28;97670;-76
2022/02/22 01:41:51;;;;;;;11.55;1.60;;;;;;;8.85;60.55;100084.31;4992369;28;98283;-76
2022/02/22 01:44:22;;;;;;;14.30;2.03;;;;;;;9.07;59.92;100087.78;4983866;28;99230;-76
2022/02/22 01:46:56;;;;;;;13.10;2.05;;;;;;;9.56;58.66;100096.38;4984448;28;99319;-76
2022/02/22 01:49:23;;;;;;;13.70;1.58;;;;;;;8.43;61.76;100104.34;4990104;28;96806;-75
2022/02/22 01:51:51;;;;;;;11.85;1.98;;;;;;;8.82;61.12;100102.00;4987601;28;97296;-76
2022/02/22 01:54:18;;;;;;;10.82;1.85;;;;;;;8.92;59.88;100101.59;4990040;28;99047;-76
2022/02/22 01:56:44;;;;;;;11.52;1.63;;;;;;;8.68;60.70;100111.28;4991640;28;98866;-76
2022/02/22 01:59:11;;;;;;;9.73;1.70;;;;;;;9.27;59.64;100115.13;4989829;28;96842;-76
2022/02/22 02:01:37;;;;;;;17.73;2.83;;;;;;;8.77;60.97;100125.88;4985880;28;97734;-76
2022/02/22 02:04:05;;;;;;;16.25;1.70;;;;;;;9.17;60.10;100128.72;4991323;28;99288;-75
2022/02/22 02:06:32;;;;;;;10.85;1.67;;;;;;;9.41;58.83;100131.25;4987856;28;99004;-76
2022/02/22 02:09:00;;;;;;;20.83;2.10;;;;;;;8.93;59.81;100126.16;4990571;28;96800;-75
2022/02/22 02:11:26;;;;;;;13.05;1.60;;;;;;;9.09;59.26;100130.78;4998574;22;97391;-73
2022/02/22 02:13:55;;;;;;;11.38;1.52;;;;;;;9.34;59.16;100142.97;4969553;28;99597;-74
2022/02/22 02:16:21;;;;;;;10.80;1.23;;;;;;;9.58;58.37;100152.56;4968715;28;98453;-74
2022/02/22 02:18:49;;;;;;;14.35;1.77;;;;;;;9.79;56.99;100156.94;4973598;28;96730;-75
2022/02/22 02:21:16;;;;;;;14.05;2.03;;;;;;;9.34;58.35;100158.78;4976040;28;96787;-74
2022/02/22 02:23:44;;;;;;;9.35;1.30;;;;;;;9.20;58.91;100161.97;4962318;28;99008;-74
2022/02/22 02:26:11;;;;;;;14.52;1.98;;;;;;;8.83;59.19;100149.38;4972261;28;99251;-73
2022/02/22 02:28:37;;;;;;;7.68;1.15;;;;;;;8.69;60.40;100160.41;4973277;28;97272;-74
2022/02/22 02:31:04;;;;;;;14.25;1.70;;;;;;;9.02;59.74;100167.97;4972991;28;98974;-75
2022/02/22 02:33:30;;;;;;;8.85;1.77;;;;;;;9.13;59.34;100171.03;4973622;28;100437;-73
2022/02/22 02:35:57;;;;;;;15.35;3.47;;;;;;;9.27;59.00;100171.38;4975017;28;99149;-72
2022/02/22 02:38:23;;;;;;;13.02;1.63;;;;;;;9.29;59.18;100180.09;4966733;28;97944;-74
2022/02/22 02:40:51;;;;;;;14.23;2.45;;;;;;;9.19;59.50;100186.63;4970299;28;96932;-74
2022/02/22 02:43:17;;;;;;;11.90;1.77;;;;;;;8.98;60.22;100193.59;4965600;28;98172;-74
2022/02/22 02:45:44;;;;;;;15.70;1.67;;;;;;;8.93;60.96;100192.00;4969724;28;99404;-74
2022/02/22 02:48:10;;;;;;;11.93;2.13;;;;;;;9.42;59.49;100197.13;4966905;28;97606;-74
2022/02/22 02:50:37;;;;;;;16.00;1.88;;;;;;;8.72;61.51;100197.19;4973294;28;97072;-73
2022/02/22 02:53:06;;;;;;;16.17;2.00;;;;;;;8.80;61.70;100202.16;4968404;28;99007;-74
2022/02/22 02:55:32;;;;;;;17.50;2.53;;;;;;;9.32;60.00;100201.03;4972498;28;98900;-73
2022/02/22 02:58:03;;;;;;;14.60;1.95;;;;;;;9.02;60.90;100204.84;4970973;28;98794;-74
2022/02/22 03:00:29;;;;;;;17.17;2.53;;;;;;;8.75;61.66;100202.34;4979422;28;96952;-75
2022/02/22 03:02:56;;;;;;;16.02;1.88;;;;;;;9.10;61.39;100205.44;4979756;28;100645;-74
2022/02/22 03:05:22;;;;;;;12.35;1.52;;;;;;;8.96;61.85;100207.72;4977092;28;97439;-74
2022/02/22 03:07:49;;;;;;;15.30;2.65;;;;;;;9.45;60.84;100226.00;4970805;28;96754;-73
2022/02/22 03:10:15;;;;;;;16.02;2.33;;;;;;;9.50;60.61;100221.44;4978831;28;97045;-73
2022/02/22 03:12:41;;;;;;;13.30;1.90;;;;;;;8.69;62.78;100225.41;4965917;28;99261;-73
2022/02/22 03:15:10;;;;;;;12.75;1.88;;;;;;;8.92;61.77;100221.94;4978667;28;99336;-74
2022/02/22 03:17:37;;;;;;;9.65;1.65;;;;;;;9.18;60.84;100227.97;4975260;28;96701;-73
2022/02/22 03:20:04;;;;;;;14.18;1.80;;;;;;;9.44;60.31;100249.84;4967906;28;96909;-74
2022/02/22 03:22:31;;;;;;;14.43;2.13;;;;;;;8.80;61.90;100244.31;4971986;28;98084;-74
2022/02/22 03:24:57;;;;;;;14.07;1.63;;;;;;;9.46;60.59;100253.25;4971438;28;100987;-74
2022/02/22 03:27:50;;;;;;;13.55;1.65;;;;;;;8.79;61.44;100261.06;4971731;28;96863;-76
2022/02/22 03:30:18;;;;;;;8.60;1.95;;;;;;;9.13;61.94;100260.66;4954673;28;97205;-74
2022/02/22 03:32:44;;;;;;;12.75;1.17;;;;;;;8.79;62.06;100256.63;4968850;28;98177;-75
2022/02/22 03:35:11;;;;;;;12.57;1.83;;;;;;;8.94;62.08;100271.00;4967058;28;99340;-73
2022/02/22 03:37:40;;;;;;;14.27;1.70;;;;;;;8.52;63.09;100272.56;4976917;28;99303;-74
2022/02/22 03:40:07;;;;;;;8.65;1.48;;;;;;;8.82;62.66;100270.59;4976517;28;96991;-74
2022/02/22 03:42:34;;;;;;;11.27;1.48;;;;;;;9.27;61.40;100265.41;4973251;28;99374;-74
2022/02/22 03:45:00;;;;;;;11.13;2.30;;;;;;;8.64;62.72;100272.13;4975589;28;99143;-74
2022/02/22 03:47:28;;;;;;;19.60;2.10;;;;;;;8.25;63.39;100272.53;4976537;28;97359;-73
2022/02/22 03:49:54;;;;;;;11.43;2.03;;;;;;;9.03;61.36;100286.50;4971995;28;96965;-75
2022/02/22 03:52:20;;;;;;;14.88;1.92;;;;;;;8.60;62.18;100292.41;4974781;28;99235;-75
2022/02/22 03:54:47;;;;;;;20.83;2.35;;;;;;;8.25;62.55;100296.22;4970559;28;97979;-74
2022/02/22 03:57:13;;;;;;;16.65;2.47;;;;;;;8.65;60.82;100310.72;4979162;28;96859;-73
2022/02/22 03:59:40;;;;;;;17.95;2.38;;;;;;;8.85;60.16;100305.63;4971593;28;96829;-75
2022/02/22 04:02:06;;;;;;;32.58;3.10;;;;;;;8.28;60.48;100309.28;4981782;28;98215;-75
2022/02/22 04:04:34;;;;;;;23.30;2.47;;;;;;;8.28;60.30;100324.19;4968087;28;99217;-75
2022/02/22 04:07:00;;;;;;;24.02;2.85;;;;;;;8.38;59.67;100329.16;4972675;28;96782;-74
2022/02/22 04:09:27;;;;;;;21.00;2.58;;;;;;;8.37;58.42;100337.97;4961781;28;97480;-74
2022/02/22 04:11:53;;;;;;;27.63;2.97;;;;;;;8.60;57.25;100344.25;4975241;28;99222;-75
2022/02/22 04:14:20;;;;;;;29.92;3.25;;;;;;;8.60;56.46;100344.25;4972685;28;97863;-74
2022/02/22 04:16:46;;;;;;;21.85;2.53;;;;;;;8.62;55.77;100358.22;4972925;28;99107;-74
2022/02/22 04:19:13;;;;;;;29.55;3.20;;;;;;;8.99;54.17;100360.47;4967821;28;98793;-74
2022/02/22 04:21:41;;;;;;;18.58;2.78;;;;;;;8.97;53.75;100360.53;4973051;28;97921;-75
2022/02/22 04:24:07;;;;;;;18.15;2.75;;;;;;;8.91;53.39;100371.28;4970639;28;99546;-74
2022/02/22 04:26:34;;;;;;;24.92;3.30;;;;;;;8.42;53.92;100381.72;4975437;28;96962;-75
2022/02/22 04:29:01;;;;;;;23.15;2.90;;;;;;;8.70;52.88;100366.72;4973547;28;96858;-74
2022/02/22 04:31:27;;;;;;;19.85;2.95;;;;;;;8.30;53.53;100394.38;4979677;28;98988;-74
2022/02/22 04:33:54;;;;;;;21.95;3.15;;;;;;;8.14;53.51;100397.50;4977267;28;97972;-75
2022/02/22 04:36:21;;;;;;;25.58;3.08;;;;;;;8.35;53.08;100397.72;4977022;28;96875;-74
2022/02/22 04:38:49;;;;;;;23.15;3.25;;;;;;;8.82;51.84;100395.28;4973649;28;96784;-74
2022/02/22 04:41:15;;;;;;;29.30;3.35;;;;;;;8.15;52.58;100405.34;4977029;28;99088;-74
2022/02/22 04:43:44;;;;;;;29.27;3.25;;;;;;;8.27;52.34;100406.75;4974093;28;99366;-75
2022/02/22 04:46:10;;;;;;;32.38;4.72;;;;;;;7.82;53.13;100414.25;4974087;28;96884;-74
2022/02/22 04:48:37;;;;;;;21.42;3.13;;;;;;;8.51;51.65;100420.94;4973434;28;97404;-75
2022/02/22 04:51:04;;;;;;;31.08;4.05;;;;;;;8.58;51.00;100431.22;4977961;28;102477;-73
2022/02/22 04:53:31;;;;;;;33.65;4.18;;;;;;;8.35;51.61;100438.97;4979058;28;98931;-74
2022/02/22 04:55:59;;;;;;;23.42;2.58;;;;;;;8.35;50.93;100438.97;4977703;28;96902;-73
2022/02/22 04:58:25;;;;;;;27.65;3.20;;;;;;;8.15;51.57;100439.53;4978699;28;96895;-75
2022/02/22 05:00:52;;;;;;;23.70;3.35;;;;;;;8.25;51.03;100448.91;4980777;28;100409;-75
2022/02/22 05:03:19;;;;;;;28.58;3.20;;;;;;;7.81;52.21;100444.94;4971289;28;99431;-75
2022/02/22 05:05:45;;;;;;;19.73;4.00;;;;;;;7.70;53.13;100451.41;4976706;28;97610;-75
2022/02/22 05:08:11;;;;;;;31.25;3.17;;;;;;;8.33;51.42;100457.47;4963500;28;96895;-74
2022/02/22 05:10:38;;;;;;;24.13;2.97;;;;;;;8.57;51.54;100465.50;4970784;28;98895;-74
2022/02/22 05:13:07;;;;;;;25.50;4.05;;;;;;;8.22;51.79;100471.81;4972739;28;96869;-74
2022/02/22 05:15:33;;;;;;;33.47;5.03;;;;;;;8.36;51.78;100473.16;4967297;28;96868;-74
2022/02/22 05:18:00;;;;;;;32.05;4.40;;;;;;;7.52;53.95;100477.34;4981116;28;97268;-74
2022/02/22 05:20:27;;;;;;;31.35;3.85;;;;;;;7.95;52.78;100482.25;4968290;28;99032;-73
2022/02/22 05:22:54;;;;;;;24.00;3.17;;;;;;;7.22;54.34;100489.50;4969957;28;99607;-74
2022/02/22 05:25:21;;;;;;;25.83;3.60;;;;;;;7.83;53.17;100471.22;4980723;28;97170;-74
2022/02/22 05:27:47;;;;;;;23.13;3.28;;;;;;;8.03;52.38;100492.53;4969743;28;96868;-73
2022/02/22 05:30:17;;;;;;;28.73;3.00;;;;;;;7.93;52.74;100494.59;4969284;28;97666;-74
2022/02/22 05:32:44;;;;;;;31.98;3.58;;;;;;;8.02;52.27;100493.44;4974357;28;99115;-75
2022/02/22 05:35:13;;;;;;;22.35;2.90;;;;;;;7.65;53.32;100501.53;4975015;28;97827;-74
2022/02/22 05:37:40;;;;;;;37.33;4.68;;;;;;;7.94;52.36;100504.19;4976013;28;96994;-74
2022/02/22 05:40:08;;;;;;;20.00;3.28;;;;;;;8.16;52.27;100507.06;4969891;28;98191;-74
2022/02/22 05:42:35;;;;;;;35.78;5.38;;;;;;;8.16;51.87;100511.47;4973911;28;98082;-74
2022/02/22 05:45:02;;;;;;;26.92;3.55;;;;;;;8.21;51.39;100526.22;4973571;28;96781;-75
2022/02/22 05:47:30;;;;;;;36.50;3.97;;;;;;;8.44;51.56;100533.47;4973738;28;97026;-73
2022/02/22 05:49:56;;;;;;;23.80;3.58;;;;;;;8.12;51.81;100536.16;4980081;28;98881;-73
2022/02/22 05:52:23;;;;;;;33.55;3.85;;;;;;;8.03;51.90;100537.28;4981041;28;97562;-73
2022/02/22 05:54:49;;;;;;;29.48;4.10;;;;;;;8.15;52.11;100542.19;4982760;28;97034;-73
2022/02/22 05:57:16;;;;;;;28.33;4.40;;;;;;;7.72;52.79;100550.44;4985318;28;96938;-74
2022/02/22 05:59:45;;;;;;;27.60;3.72;;;;;;;7.22;53.54;100556.97;4978677;28;97614;-75
2022/02/22 06:02:11;;;;;;;27.63;3.85;;;;;;;7.96;51.83;100557.63;4976762;28;97520;-73
2022/02/22 06:04:39;;;;;;;29.17;4.15;;;;;;;7.82;52.33;100572.06;4974408;28;96773;-73
2022/02/22 06:07:06;;;;;;;39.15;5.07;;;;;;;8.02;51.37;100570.63;4978348;28;96835;-73
2022/02/22 06:09:32;;;;;;;34.42;5.05;;;;;;;7.87;51.94;100588.63;4980959;28;98573;-75
2022/02/22 06:11:59;;;;;;;31.80;4.28;;;;;;;7.82;52.69;100590.47;4983008;28;99751;-74
2022/02/22 06:14:25;;;;;;;28.90;4.28;;;;;;;7.99;52.20;100599.66;4969801;28;96952;-74
2022/02/22 06:16:53;;;;;;;38.67;4.70;;;;;;;8.15;51.70;100601.84;4976294;28;96883;-73
2022/02/22 06:19:20;;;;;;;32.95;3.45;;;;;;;8.57;51.12;100598.03;4971255;28;97817;-76
2022/02/22 06:21:48;;;;;;;40.05;6.63;;;;;;;8.79;50.62;100590.38;4979139;28;98081;-73
2022/02/22 06:24:14;;;;;;;40.35;5.05;;;;;;;8.26;51.52;100594.53;4977441;28;97107;-73
2022/02/22 06:26:41;;;;;;;26.73;4.03;;;;;;;8.05;52.27;100611.78;4981095;28;96820;-74
2022/02/22 06:29:07;;;;;;;32.95;4.95;;;;;;;7.71;53.00;100611.81;4971773;28;99367;-73
2022/02/22 06:31:34;;;;;;;43.15;5.72;;;;;;;8.58;51.44;100614.72;4988418;28;98099;-77
2022/02/22 06:34:04;;;;;;;24.85;4.20;;;;;;;8.61;51.02;100609.34;4984652;28;96744;-75
2022/02/22 06:36:31;;;;;;;28.15;4.15;;;;;;;8.28;51.47;100619.91;4990800;28;98996;-74
2022/02/22 06:38:58;;;;;;;32.95;4.78;;;;;;;8.44;51.13;100620.38;4979294;28;98181;-76
2022/02/22 06:41:25;;;;;;;33.20;5.70;;;;;;;7.94;52.41;100619.94;4980879;28;97763;-75
2022/02/22 06:43:53;;;;;;;27.40;4.22;;;;;;;8.13;52.21;100632.63;4986718;28;97785;-75
2022/02/22 06:46:20;;;;;;;38.60;4.80;;;;;;;8.31;52.32;100635.66;4986200;28;96969;-75
2022/02/22 06:48:46;;;;;;;34.35;4.93;;;;;;;8.13;52.26;100644.03;4979141;28;99845;-74
2022/02/22 06:51:13;;;;;;;41.17;4.85;;;;;;;8.02;52.49;100651.34;4979949;28;97760;-75
2022/02/22 06:53:39;;;;;;;35.97;5.85;;;;;;;8.05;52.80;100645.13;4982887;28;96862;-73
2022/02/22 06:56:08;;;;;;;37.50;5.10;;;;;;;8.51;51.45;100650.03;4984063;28;96806;-73
2022/02/22 06:58:36;;;;;;;43.00;5.28;;;;;;;8.05;53.07;100653.03;4978536;28;99313;-75
2022/02/22 07:01:03;;;;;;;32.67;5.05;;;;;;;7.95;53.46;100655.88;4982856;28;97565;-74
2022/02/22 07:03:29;;;;;;;34.50;4.32;;;;;;;7.84;53.65;100662.34;4977817;28;96756;-74
2022/02/22 07:05:56;;;;;;;37.97;5.03;;;;;;;8.29;52.42;100676.91;4981160;28;96677;-73
2022/02/22 07:08:22;;;;;;;29.80;5.22;;;;;;;7.92;53.01;100673.53;4974051;28;99097;-73
2022/02/22 07:10:49;;;;;;;29.02;4.43;;;;;;;7.78;53.37;100667.75;4978101;28;99575;-74
2022/02/22 07:13:15;;;;;;;37.97;5.22;;;;;;;8.10;52.46;100682.72;4975976;28;96940;-74
2022/02/22 07:15:43;;;;;;;31.83;4.18;;;;;;;7.67;53.35;100672.44;4974803;28;96779;-73
2022/02/22 07:18:11;;;;;;;31.85;5.28;;;;;;;7.89;53.03;100682.38;4971831;28;99437;-76
2022/02/22 07:20:39;;;;;;;27.17;4.05;;;;;;;8.50;51.62;100690.44;4983113;28;100467;-73
2022/02/22 07:23:05;;;;;;;27.85;4.10;;;;;;;8.15;51.93;100686.94;4972529;28;98244;-73
2022/02/22 07:25:33;;;;;;;32.17;4.07;;;;;;;8.21;52.26;100697.31;4976961;28;98397;-75
2022/02/22 07:28:01;;;;;;;31.35;4.50;;;;;;;8.95;50.52;100707.56;4986289;28;98073;-77
2022/02/22 07:30:29;;;;;;;27.42;4.55;;;;;;;8.47;50.90;100722.97;4982006;28;99471;-74
2022/02/22 07:32:59;;;;;;;34.75;4.30;;;;;;;8.81;50.66;100712.34;4984237;28;96848;-74
2022/02/22 07:35:26;;;;;;;28.42;4.13;;;;;;;8.63;51.16;100711.13;4978853;28;97075;-73
2022/02/22 07:37:55;;;;;;;27.58;4.30;;;;;;;8.47;51.64;100716.88;4972897;28;98948;-74
2022/02/22 07:40:24;;;;;;;37.30;5.95;;;;;;;8.68;50.73;100724.16;4975671;28;99057;-74
2022/02/22 07:42:51;;;;;;;33.05;4.32;;;;;;;8.33;51.56;100725.13;4972455;28;96834;-74
2022/02/22 07:45:18;;;;;;;28.73;4.50;;;;;;;8.29;51.60;100729.56;4976644;28;97868;-76
2022/02/22 07:47:45;;;;;;;33.95;5.13;;;;;;;7.97;52.74;100737.44;4967487;28;99052;-75
2022/02/22 07:50:14;;;;;;;32.72;4.60;;;;;;;8.29;52.34;100734.84;4976467;28;100721;-77
2022/02/22 07:52:41;;;;;;;26.80;4.60;;;;;;;8.42;51.98;100748.56;4979987;28;98009;-77
2022/02/22 07:55:08;;;;;;;30.30;4.65;;;;;;;9.02;50.87;100747.78;4978543;28;97058;-77
2022/02/22 07:57:36;;;;;;;21.25;3.38;;;;;;;9.22;49.99;100745.41;4979446;28;99278;-78
2022/02/22 08:00:05;;;;;;;27.50;3.47;;;;;;;9.02;50.26;100751.28;4979241;28;99716;-78
2022/02/22 08:02:32;;;;;;;31.02;4.07;;;;;;;8.59;50.75;100754.28;4986088;28;96726;-78
2022/02/22 08:04:59;;;;;;;26.85;3.60;;;;;;;9.13;49.74;100766.78;4988796;28;96834;-78
2022/02/22 08:07:29;;;;;;;29.63;4.18;;;;;;;9.33;49.54;100764.41;4983789;28;99853;-75
2022/02/22 08:12:30;;;;;;;30.13;3.33;;;;;;;8.69;50.74;100792.63;4968829;28;96864;-78
2022/02/22 08:14:57;;;;;;;26.63;3.22;;;;;;;8.71;50.54;100792.59;4971514;28;97022;-78
2022/02/22 08:17:23;;;;;;;24.33;3.55;;;;;;;8.65;51.45;100803.28;4967639;28;100017;-78
2022/02/22 08:19:53;;;;;;;26.17;4.05;;;;;;;8.65;51.67;100809.41;4971078;28;98843;-79
2022/02/22 08:22:19;;;;;;;26.23;3.72;;;;;;;9.23;49.96;100813.06;4953237;28;96759;-79
2022/02/22 08:24:47;;;;;;;28.00;4.40;;;;;;;9.13;51.02;100799.28;4954576;28;96887;-79
2022/02/22 08:27:14;;;;;;;30.13;4.28;;;;;;;8.93;51.53;100813.91;4954477;28;99033;-79
2022/02/22 08:29:41;;;;;;;29.08;3.30;;;;;;;9.02;51.51;100821.56;4954188;28;100722;-78
2022/02/22 08:32:08;;;;;;;23.60;3.85;;;;;;;9.02;51.03;100816.31;4949355;28;97351;-79
2022/02/22 08:34:34;;;;;;;30.23;3.78;;;;;;;9.15;51.43;100823.81;4956823;28;97369;-78
2022/02/22 08:37:01;;;;;;;32.45;4.20;;;;;;;8.87;51.42;100828.13;4950404;28;99003;-78
2022/02/22 08:39:27;;;;;;;25.50;3.65;;;;;;;8.60;52.57;100828.88;4950958;28;98998;-78
2022/02/22 08:41:55;;;;;;;22.92;3.70;;;;;;;9.06;51.10;100834.63;4952195;28;96739;-77
2022/02/22 08:44:22;;;;;;;27.52;3.83;;;;;;;9.20;50.89;100836.88;4957272;28;97106;-79
2022/02/22 08:46:51;;;;;;;28.73;4.20;;;;;;;9.80;49.55;100847.41;4951166;28;101692;-79
2022/02/22 08:49:18;;;;;;;18.33;3.90;;;;;;;9.78;48.87;100836.00;4941801;28;98947;-78
2022/02/22 08:51:44;;;;;;;24.92;3.47;;;;;;;9.58;49.38;100843.69;4945731;28;97201;-78
2022/02/22 08:54:11;;;;;;;29.20;4.18;;;;;;;9.94;48.22;100846.97;4950724;28;96957;-77
2022/02/22 08:56:37;;;;;;;22.75;2.80;;;;;;;9.36;49.47;100848.72;4950758;28;99217;-78
2022/02/22 08:59:05;;;;;;;22.70;4.03;;;;;;;10.09;47.99;100856.19;4952385;28;98815;-77
2022/02/22 09:01:35;;;;;;;24.13;3.05;;;;;;;9.72;48.27;100862.59;4952994;28;97532;-78
2022/02/22 09:04:01;;;;;;;16.17;2.78;;;;;;;9.76;47.41;100852.81;4946483;28;99244;-78
2022/02/22 09:06:27;;;;;;;17.65;2.65;;;;;;;9.51;47.81;100848.28;4954979;28;101138;-78
2022/02/22 09:08:54;;;;;;;19.08;2.50;;;;;;;9.76;47.45;100853.69;4947796;28;98792;-78
2022/02/22 09:11:20;;;;;;;16.15;2.63;;;;;;;9.69;47.64;100852.13;4956600;28;97878;-78
2022/02/22 09:13:47;;;;;;;12.98;2.13;;;;;;;9.77;47.41;100858.06;4945676;28;96871;-78
2022/02/22 09:16:15;;;;;;;18.52;2.30;;;;;;;10.25;46.46;100874.16;4957764;28;98416;-78
2022/02/22 09:18:41;;;;;;;22.33;2.83;;;;;;;9.29;49.07;100870.91;4952916;28;98907;-79
2022/02/22 09:21:08;;;;;;;20.13;2.03;;;;;;;8.86;49.63;100875.63;4951390;28;97453;-78
2022/02/22 09:23:35;;;;;;;16.77;2.22;;;;;;;9.24;48.94;100877.22;4944824;28;96804;-76
2022/02/22 09:26:02;;;;;;;12.18;2.40;;;;;;;9.87;46.95;100887.66;4947569;28;99080;-76
2022/02/22 09:28:28;;;;;;;17.20;2.25;;;;;;;9.46;47.96;100892.38;4950011;28;98572;-76
2022/02/22 09:30:54;;;;;;;17.88;2.58;;;;;;;9.27;49.19;100896.44;4954398;28;96714;-77
2022/02/22 09:33:22;;;;;;;11.90;2.15;;;;;;;8.64;49.72;100893.75;4956145;28;96769;-77
2022/02/22 09:35:49;;;;;;;18.63;2.28;;;;;;;9.25;48.99;100894.78;4948735;28;99153;-76
2022/02/22 09:38:15;;;;;;;16.52;2.60;;;;;;;9.83;47.56;100901.88;4947019;28;98080;-77
2022/02/22 09:40:42;;;;;;;10.95;2.05;;;;;;;10.09;47.15;100909.00;4952454;28;97149;-77
2022/02/22 09:43:08;;;;;;;15.20;2.00;;;;;;;10.58;46.45;100903.91;4951313;28;97366;-76
2022/02/22 09:45:35;;;;;;;19.73;3.00;;;;;;;10.24;47.04;100911.19;4952205;28;102210;-77
2022/02/22 09:48:04;;;;;;;22.38;3.67;;;;;;;10.06;46.87;100906.44;4947256;28;99105;-76
2022/02/22 09:50:34;;;;;;;16.40;2.90;;;;;;;10.00;47.49;100916.28;4953054;28;99194;-76
2022/02/22 09:53:01;;;;;;;12.32;2.42;;;;;;;10.13;46.49;100922.03;4951027;28;96953;-78
2022/02/22 09:55:28;;;;;;;27.60;2.97;;;;;;;10.33;45.76;100910.91;4951554;28;98291;-78
2022/02/22 09:57:54;;;;;;;21.42;2.90;;;;;;;9.44;47.94;100927.63;4949988;28;99650;-78
2022/02/22 10:00:23;;;;;;;22.65;4.10;;;;;;;9.17;48.01;100924.84;4952009;28;97344;-77
2022/02/22 10:02:50;;;;;;;25.30;3.42;;;;;;;9.55;47.39;100922.91;4951191;28;96826;-78
2022/02/22 10:05:18;;;;;;;17.17;2.60;;;;;;;9.38;47.46;100931.31;4948584;28;98934;-77
2022/02/22 10:07:52;;;;;;;24.42;4.10;;;;;;;9.85;46.99;100916.72;4943786;28;98929;-77
2022/02/22 10:10:20;;;;;;;20.02;2.63;;;;;;;10.00;46.18;100928.63;4951950;28;96951;-76
2022/02/22 10:12:54;;;;;;;31.27;3.35;;;;;;;10.59;45.03;100920.63;4952503;28;98908;-76
2022/02/22 10:15:21;;;;;;;17.60;3.10;;;;;;;10.13;45.81;100934.38;4946898;28;98924;-78
2022/02/22 10:17:50;;;;;;;24.38;3.25;;;;;;;10.06;46.22;100930.19;4945373;28;98904;-76
2022/02/22 10:20:17;;;;;;;20.38;2.58;;;;;;;9.77;45.61;100941.63;4951781;28;97318;-75
2022/02/22 10:22:49;;;;;;;20.40;2.95;;;;;;;9.01;47.53;100941.09;4951165;28;98166;-77
2022/02/22 10:25:16;;;;;;;17.67;2.53;;;;;;;9.60;46.58;100942.09;4949018;28;97886;-75
2022/02/22 10:27:45;;;;;;;19.38;3.33;;;;;;;9.53;46.69;100951.09;4946860;28;99127;-75
2022/02/22 10:30:31;;;;;;;14.18;2.92;;;;;;;10.35;45.29;100932.84;4950139;28;96780;-76
2022/02/22 10:32:59;;;;;;;21.10;3.58;;;;;;;10.60;44.41;100948.78;4951984;28;96815;-76
2022/02/22 10:35:34;;;;;;;18.45;3.30;;;;;;;11.26;42.62;100948.28;4949515;28;99736;-76
2022/02/22 10:38:13;;;;;;;24.30;4.18;;;;;;;10.63;44.05;100944.25;4950856;28;101404;-76
2022/02/22 10:40:41;;;;;;;24.65;3.22;;;;;;;10.91;42.97;100948.63;4947167;28;99003;-76
2022/02/22 10:43:08;;;;;;;23.77;3.00;;;;;;;10.89;44.14;100950.47;4945897;28;97625;-77
2022/02/22 10:45:35;;;;;;;30.27;3.28;;;;;;;10.16;45.64;100958.06;4946365;28;99056;-75
2022/02/22 10:48:01;;;;;;;15.82;2.60;;;;;;;9.91;46.36;100957.94;4949697;28;97743;-76
2022/02/22 10:50:31;;;;;;;20.95;3.30;;;;;;;9.83;46.12;100975.78;4950932;28;98509;-76
2022/02/22 10:52:58;;;;;;;16.67;2.58;;;;;;;10.61;45.33;100967.22;4946750;28;96925;-76
2022/02/22 10:55:26;;;;;;;30.83;3.42;;;;;;;10.03;46.03;100965.50;4946453;28;98714;-76
2022/02/22 10:57:53;;;;;;;18.67;2.67;;;;;;;10.10;45.25;100951.19;4945562;28;99359;-76
2022/02/22 11:00:20;;;;;;;21.77;2.95;;;;;;;10.72;44.55;100970.38;4954043;28;97332;-76
2022/02/22 11:02:47;;;;;;;16.80;2.17;;;;;;;10.43;43.92;100951.97;4942569;28;96939;-76
2022/02/22 11:05:14;;;;;;;15.30;2.78;;;;;;;10.23;45.03;100960.50;4945635;28;99337;-74
2022/02/22 11:07:41;;;;;;;16.42;3.03;;;;;;;10.32;44.97;100957.56;4950803;28;98832;-76
2022/02/22 11:10:10;;;;;;;22.45;2.85;;;;;;;9.80;46.87;100966.16;4955252;28;96879;-77
2022/02/22 11:12:53;;;;;;;19.00;2.33;;;;;;;10.16;47.02;100979.19;4948895;28;96792;-75
2022/02/22 11:15:31;;;;;;;16.65;2.95;;;;;;;10.27;46.55;100977.13;4948565;28;98325;-77
2022/02/22 11:18:02;;;;;;;18.90;2.50;;;;;;;10.64;45.60;100969.75;4949186;28;99718;-75
2022/02/22 11:20:31;;;;;;;14.93;2.67;;;;;;;10.83;45.51;100969.19;4949896;28;96990;-74
2022/02/22 11:23:00;;;;;;;18.88;2.20;;;;;;;11.78;42.96;100973.78;4948436;28;97493;-77
2022/02/22 11:25:30;;;;;;;15.10;2.30;;;;;;;11.04;43.38;100971.09;4947065;28;99375;-75
2022/02/22 11:28:05;;;;;;;23.35;2.90;;;;;;;11.49;42.35;100982.72;4947370;28;99037;-76